Decoded Metar for SBCZ (CRUIZIRO DO SUL in BRAZIL) (IATA:CZS) | Meteo·Mobile Aviation Weather
aviador You're here:

SBCZ Decoded Metar

CRUIZIRO DO SUL in BRAZIL
Report Time2019-01-19 05:00:00
UTC Time2019-01-19 06:56:39
Flight Rules Old
WindCalm
Visibility9999 m
Phenomena:N/A
Clouds:N/A
CeilingNone
Temp24°C (ISA +10)
Dew Point24°C (100% RH)
QNH1013 hPa
Density Alt2,126 ft
Elevation558 ft
Report Wrong Elevation
Raw Report
METAR SBCZ 190500Z 00000KT CAVOK 24/24 Q1013=

Extra information for SBCZ:More info

Metar Taf Metar & Taf Last 4 Metars F.Rules Stats Wind Profile Meteogram Temp Stats Airport Information Weather charts Add Link Nearby VenuesMetar ALERT Operation Metar Decoded Social comments